sensor_id;sensor_type;location;lat;lon;timestamp;P1;durP1;ratioP1;P2;durP2;ratioP2
4756;SDS011;2392;52.578;13.426;2023-05-21T00:02:13;16.50;;;13.10;;
4756;SDS011;2392;52.578;13.426;2023-05-21T00:04:42;14.13;;;12.63;;
4756;SDS011;2392;52.578;13.426;2023-05-21T00:07:11;14.57;;;12.93;;
4756;SDS011;2392;52.578;13.426;2023-05-21T00:09:39;14.17;;;12.80;;
4756;SDS011;2392;52.578;13.426;2023-05-21T00:12:07;16.50;;;13.13;;
4756;SDS011;2392;52.578;13.426;2023-05-21T00:14:37;13.40;;;12.10;;
4756;SDS011;2392;52.578;13.426;2023-05-21T00:17:04;17.40;;;13.70;;
4756;SDS011;2392;52.578;13.426;2023-05-21T00:19:31;17.53;;;13.63;;
4756;SDS011;2392;52.578;13.426;2023-05-21T00:21:58;14.63;;;13.03;;
4756;SDS011;2392;52.578;13.426;2023-05-21T00:24:29;17.37;;;14.70;;
4756;SDS011;2392;52.578;13.426;2023-05-21T00:26:56;22.80;;;16.30;;
4756;SDS011;2392;52.578;13.426;2023-05-21T00:29:23;15.97;;;13.60;;
4756;SDS011;2392;52.578;13.426;2023-05-21T00:31:50;16.77;;;14.43;;
4756;SDS011;2392;52.578;13.426;2023-05-21T00:34:17;17.37;;;15.53;;
4756;SDS011;2392;52.578;13.426;2023-05-21T00:36:44;18.03;;;13.50;;
4756;SDS011;2392;52.578;13.426;2023-05-21T00:39:12;17.60;;;13.87;;
4756;SDS011;2392;52.578;13.426;2023-05-21T00:41:41;18.80;;;14.97;;
4756;SDS011;2392;52.578;13.426;2023-05-21T00:44:11;16.97;;;14.60;;
4756;SDS011;2392;52.578;13.426;2023-05-21T00:46:39;17.80;;;14.07;;
4756;SDS011;2392;52.578;13.426;2023-05-21T00:49:06;17.53;;;13.73;;
4756;SDS011;2392;52.578;13.426;2023-05-21T00:51:33;16.97;;;13.90;;
4756;SDS011;2392;52.578;13.426;2023-05-21T00:54:00;22.10;;;14.97;;
4756;SDS011;2392;52.578;13.426;2023-05-21T00:56:27;19.03;;;14.27;;
4756;SDS011;2392;52.578;13.426;2023-05-21T00:58:56;16.17;;;14.43;;
4756;SDS011;2392;52.578;13.426;2023-05-21T01:01:24;16.73;;;14.67;;
4756;SDS011;2392;52.578;13.426;2023-05-21T01:03:51;19.93;;;16.03;;
4756;SDS011;2392;52.578;13.426;2023-05-21T01:06:21;16.70;;;13.77;;
4756;SDS011;2392;52.578;13.426;2023-05-21T01:08:49;15.03;;;12.40;;
4756;SDS011;2392;52.578;13.426;2023-05-21T01:11:16;17.67;;;14.23;;
4756;SDS011;2392;52.578;13.426;2023-05-21T01:13:44;15.27;;;13.77;;
4756;SDS011;2392;52.578;13.426;2023-05-21T01:16:14;15.73;;;14.13;;
4756;SDS011;2392;52.578;13.426;2023-05-21T01:18:41;15.77;;;13.13;;
4756;SDS011;2392;52.578;13.426;2023-05-21T01:21:10;15.57;;;13.93;;
4756;SDS011;2392;52.578;13.426;2023-05-21T01:23:42;14.83;;;13.30;;
4756;SDS011;2392;52.578;13.426;2023-05-21T01:26:10;16.80;;;15.00;;
4756;SDS011;2392;52.578;13.426;2023-05-21T01:28:37;15.00;;;13.40;;
4756;SDS011;2392;52.578;13.426;2023-05-21T01:31:15;18.40;;;15.63;;
4756;SDS011;2392;52.578;13.426;2023-05-21T01:33:48;16.07;;;13.70;;
4756;SDS011;2392;52.578;13.426;2023-05-21T01:36:20;22.30;;;16.17;;
4756;SDS011;2392;52.578;13.426;2023-05-21T01:38:53;19.13;;;15.73;;
4756;SDS011;2392;52.578;13.426;2023-05-21T01:41:26;18.73;;;14.50;;
4756;SDS011;2392;52.578;13.426;2023-05-21T01:43:54;16.83;;;14.90;;
4756;SDS011;2392;52.578;13.426;2023-05-21T01:46:22;18.87;;;14.83;;
4756;SDS011;2392;52.578;13.426;2023-05-21T01:48:52;21.03;;;15.60;;
4756;SDS011;2392;52.578;13.426;2023-05-21T01:51:21;17.00;;;14.90;;
4756;SDS011;2392;52.578;13.426;2023-05-21T01:53:49;20.37;;;16.00;;
4756;SDS011;2392;52.578;13.426;2023-05-21T01:56:17;16.53;;;14.40;;
4756;SDS011;2392;52.578;13.426;2023-05-21T01:58:47;18.87;;;14.27;;
4756;SDS011;2392;52.578;13.426;2023-05-21T02:01:14;17.57;;;14.57;;
4756;SDS011;2392;52.578;13.426;2023-05-21T02:03:41;20.77;;;14.33;;
4756;SDS011;2392;52.578;13.426;2023-05-21T02:06:08;19.53;;;16.63;;
4756;SDS011;2392;52.578;13.426;2023-05-21T02:08:35;22.47;;;16.50;;
4756;SDS011;2392;52.578;13.426;2023-05-21T02:11:03;19.13;;;15.77;;
4756;SDS011;2392;52.578;13.426;2023-05-21T02:13:31;17.83;;;15.37;;
4756;SDS011;2392;52.578;13.426;2023-05-21T02:15:58;22.13;;;16.87;;
4756;SDS011;2392;52.578;13.426;2023-05-21T02:18:25;19.83;;;16.43;;
4756;SDS011;2392;52.578;13.426;2023-05-21T02:20:53;17.80;;;15.90;;
4756;SDS011;2392;52.578;13.426;2023-05-21T02:23:22;20.70;;;16.93;;
4756;SDS011;2392;52.578;13.426;2023-05-21T02:25:49;24.20;;;17.47;;
4756;SDS011;2392;52.578;13.426;2023-05-21T02:28:16;18.53;;;15.70;;
4756;SDS011;2392;52.578;13.426;2023-05-21T02:30:46;22.40;;;16.80;;
4756;SDS011;2392;52.578;13.426;2023-05-21T02:33:14;25.10;;;18.03;;
4756;SDS011;2392;52.578;13.426;2023-05-21T02:35:41;18.50;;;16.57;;
4756;SDS011;2392;52.578;13.426;2023-05-21T02:38:09;19.20;;;17.13;;
4756;SDS011;2392;52.578;13.426;2023-05-21T02:40:37;20.33;;;17.07;;
4756;SDS011;2392;52.578;13.426;2023-05-21T02:43:05;17.90;;;16.03;;
4756;SDS011;2392;52.578;13.426;2023-05-21T02:45:32;21.70;;;17.40;;
4756;SDS011;2392;52.578;13.426;2023-05-21T02:48:01;20.27;;;16.97;;
4756;SDS011;2392;52.578;13.426;2023-05-21T02:50:31;19.67;;;17.37;;
4756;SDS011;2392;52.578;13.426;2023-05-21T02:52:58;22.20;;;17.97;;
4756;SDS011;2392;52.578;13.426;2023-05-21T02:55:26;20.80;;;18.63;;
4756;SDS011;2392;52.578;13.426;2023-05-21T02:57:53;26.47;;;18.57;;
4756;SDS011;2392;52.578;13.426;2023-05-21T03:00:20;24.00;;;19.77;;
4756;SDS011;2392;52.578;13.426;2023-05-21T03:02:47;21.10;;;18.20;;
4756;SDS011;2392;52.578;13.426;2023-05-21T03:05:16;25.83;;;18.53;;
4756;SDS011;2392;52.578;13.426;2023-05-21T03:07:43;24.53;;;20.20;;
4756;SDS011;2392;52.578;13.426;2023-05-21T03:10:10;23.20;;;19.53;;
4756;SDS011;2392;52.578;13.426;2023-05-21T03:12:37;25.27;;;18.60;;
4756;SDS011;2392;52.578;13.426;2023-05-21T03:15:04;24.03;;;19.40;;
4756;SDS011;2392;52.578;13.426;2023-05-21T03:17:32;27.67;;;19.30;;
4756;SDS011;2392;52.578;13.426;2023-05-21T03:19:59;21.40;;;17.60;;
4756;SDS011;2392;52.578;13.426;2023-05-21T03:22:30;22.60;;;19.20;;
4756;SDS011;2392;52.578;13.426;2023-05-21T03:24:58;22.47;;;20.07;;
4756;SDS011;2392;52.578;13.426;2023-05-21T03:27:25;31.30;;;19.20;;
4756;SDS011;2392;52.578;13.426;2023-05-21T03:29:53;25.83;;;20.83;;
4756;SDS011;2392;52.578;13.426;2023-05-21T03:32:21;21.43;;;18.37;;
4756;SDS011;2392;52.578;13.426;2023-05-21T03:34:49;20.70;;;18.27;;
4756;SDS011;2392;52.578;13.426;2023-05-21T03:37:17;22.13;;;19.37;;
4756;SDS011;2392;52.578;13.426;2023-05-21T03:39:45;25.10;;;21.50;;
4756;SDS011;2392;52.578;13.426;2023-05-21T03:42:12;20.03;;;17.77;;
4756;SDS011;2392;52.578;13.426;2023-05-21T03:44:57;24.03;;;20.63;;
4756;SDS011;2392;52.578;13.426;2023-05-21T03:47:47;24.17;;;20.60;;
4756;SDS011;2392;52.578;13.426;2023-05-21T03:50:14;28.23;;;21.90;;
4756;SDS011;2392;52.578;13.426;2023-05-21T03:52:42;30.10;;;19.37;;
4756;SDS011;2392;52.578;13.426;2023-05-21T03:55:10;21.33;;;19.07;;
4756;SDS011;2392;52.578;13.426;2023-05-21T03:57:37;22.53;;;20.13;;
4756;SDS011;2392;52.578;13.426;2023-05-21T04:00:05;21.53;;;19.33;;
4756;SDS011;2392;52.578;13.426;2023-05-21T04:02:41;23.17;;;19.97;;
4756;SDS011;2392;52.578;13.426;2023-05-21T04:05:08;24.53;;;20.10;;
4756;SDS011;2392;52.578;13.426;2023-05-21T04:07:35;30.83;;;20.03;;
4756;SDS011;2392;52.578;13.426;2023-05-21T04:10:05;22.20;;;19.97;;
4756;SDS011;2392;52.578;13.426;2023-05-21T04:12:34;25.37;;;20.87;;
4756;SDS011;2392;52.578;13.426;2023-05-21T04:15:03;23.07;;;20.23;;
4756;SDS011;2392;52.578;13.426;2023-05-21T04:17:31;22.97;;;20.33;;
4756;SDS011;2392;52.578;13.426;2023-05-21T04:19:58;23.00;;;18.97;;
4756;SDS011;2392;52.578;13.426;2023-05-21T04:22:25;25.30;;;20.63;;
4756;SDS011;2392;52.578;13.426;2023-05-21T04:24:52;25.80;;;20.97;;
4756;SDS011;2392;52.578;13.426;2023-05-21T04:27:24;23.30;;;20.50;;
4756;SDS011;2392;52.578;13.426;2023-05-21T04:29:53;23.80;;;19.20;;
4756;SDS011;2392;52.578;13.426;2023-05-21T04:32:22;24.00;;;20.83;;
4756;SDS011;2392;52.578;13.426;2023-05-21T04:34:49;23.13;;;20.10;;
4756;SDS011;2392;52.578;13.426;2023-05-21T04:37:17;29.00;;;21.13;;
4756;SDS011;2392;52.578;13.426;2023-05-21T04:39:43;32.07;;;22.43;;
4756;SDS011;2392;52.578;13.426;2023-05-21T04:42:11;24.93;;;20.77;;
4756;SDS011;2392;52.578;13.426;2023-05-21T04:44:39;24.67;;;20.80;;
4756;SDS011;2392;52.578;13.426;2023-05-21T04:47:10;27.03;;;20.90;;
4756;SDS011;2392;52.578;13.426;2023-05-21T04:49:38;22.90;;;20.50;;
4756;SDS011;2392;52.578;13.426;2023-05-21T04:52:05;27.13;;;21.77;;
4756;SDS011;2392;52.578;13.426;2023-05-21T04:54:33;23.33;;;20.33;;
4756;SDS011;2392;52.578;13.426;2023-05-21T04:57:00;21.43;;;19.23;;
4756;SDS011;2392;52.578;13.426;2023-05-21T04:59:27;22.30;;;19.90;;
4756;SDS011;2392;52.578;13.426;2023-05-21T05:01:54;23.00;;;19.70;;
4756;SDS011;2392;52.578;13.426;2023-05-21T05:04:23;22.73;;;20.33;;
4756;SDS011;2392;52.578;13.426;2023-05-21T05:06:50;25.33;;;21.20;;
4756;SDS011;2392;52.578;13.426;2023-05-21T05:09:17;23.13;;;20.10;;
4756;SDS011;2392;52.578;13.426;2023-05-21T05:11:46;24.97;;;20.07;;
4756;SDS011;2392;52.578;13.426;2023-05-21T05:14:13;23.73;;;20.10;;
4756;SDS011;2392;52.578;13.426;2023-05-21T05:16:42;21.57;;;19.33;;
4756;SDS011;2392;52.578;13.426;2023-05-21T05:19:12;22.13;;;19.40;;
4756;SDS011;2392;52.578;13.426;2023-05-21T05:21:40;21.50;;;19.10;;
4756;SDS011;2392;52.578;13.426;2023-05-21T05:24:07;26.53;;;20.17;;
4756;SDS011;2392;52.578;13.426;2023-05-21T05:26:34;21.83;;;19.40;;
4756;SDS011;2392;52.578;13.426;2023-05-21T05:29:01;23.73;;;21.07;;
4756;SDS011;2392;52.578;13.426;2023-05-21T05:31:29;23.80;;;19.70;;
4756;SDS011;2392;52.578;13.426;2023-05-21T05:33:55;22.40;;;20.00;;
4756;SDS011;2392;52.578;13.426;2023-05-21T05:36:23;20.90;;;18.73;;
4756;SDS011;2392;52.578;13.426;2023-05-21T05:38:52;21.90;;;19.47;;
4756;SDS011;2392;52.578;13.426;2023-05-21T05:41:20;25.90;;;21.37;;
4756;SDS011;2392;52.578;13.426;2023-05-21T05:43:48;26.67;;;19.50;;
4756;SDS011;2392;52.578;13.426;2023-05-21T05:46:16;22.30;;;17.73;;
4756;SDS011;2392;52.578;13.426;2023-05-21T05:48:44;27.30;;;20.07;;
4756;SDS011;2392;52.578;13.426;2023-05-21T05:51:11;23.43;;;19.13;;
4756;SDS011;2392;52.578;13.426;2023-05-21T05:53:41;22.87;;;18.33;;
4756;SDS011;2392;52.578;13.426;2023-05-21T05:56:10;23.17;;;19.33;;
4756;SDS011;2392;52.578;13.426;2023-05-21T05:58:38;22.33;;;19.93;;
4756;SDS011;2392;52.578;13.426;2023-05-21T06:01:08;21.10;;;17.53;;
4756;SDS011;2392;52.578;13.426;2023-05-21T06:03:36;20.50;;;18.50;;
4756;SDS011;2392;52.578;13.426;2023-05-21T06:06:10;21.40;;;18.80;;
4756;SDS011;2392;52.578;13.426;2023-05-21T06:08:37;18.97;;;16.83;;
4756;SDS011;2392;52.578;13.426;2023-05-21T06:11:05;19.87;;;17.87;;
4756;SDS011;2392;52.578;13.426;2023-05-21T06:13:33;22.20;;;17.03;;
4756;SDS011;2392;52.578;13.426;2023-05-21T06:16:02;20.23;;;18.30;;
4756;SDS011;2392;52.578;13.426;2023-05-21T06:18:29;19.70;;;17.27;;
4756;SDS011;2392;52.578;13.426;2023-05-21T06:20:56;18.23;;;16.50;;
4756;SDS011;2392;52.578;13.426;2023-05-21T06:23:23;20.40;;;17.63;;
4756;SDS011;2392;52.578;13.426;2023-05-21T06:25:51;19.60;;;17.70;;
4756;SDS011;2392;52.578;13.426;2023-05-21T06:28:19;19.00;;;17.10;;
4756;SDS011;2392;52.578;13.426;2023-05-21T06:30:49;20.30;;;18.17;;
4756;SDS011;2392;52.578;13.426;2023-05-21T06:33:16;18.67;;;16.77;;
4756;SDS011;2392;52.578;13.426;2023-05-21T06:35:43;18.00;;;16.23;;
4756;SDS011;2392;52.578;13.426;2023-05-21T06:38:10;18.23;;;16.17;;
4756;SDS011;2392;52.578;13.426;2023-05-21T06:40:37;27.33;;;17.77;;
4756;SDS011;2392;52.578;13.426;2023-05-21T06:43:06;17.53;;;15.83;;
4756;SDS011;2392;52.578;13.426;2023-05-21T06:45:36;19.10;;;17.13;;
4756;SDS011;2392;52.578;13.426;2023-05-21T06:48:17;17.90;;;16.00;;
4756;SDS011;2392;52.578;13.426;2023-05-21T06:50:46;18.20;;;16.40;;
4756;SDS011;2392;52.578;13.426;2023-05-21T06:53:13;19.83;;;17.70;;
4756;SDS011;2392;52.578;13.426;2023-05-21T06:55:41;18.57;;;16.63;;
4756;SDS011;2392;52.578;13.426;2023-05-21T06:58:16;22.00;;;16.27;;
4756;SDS011;2392;52.578;13.426;2023-05-21T07:00:43;19.80;;;16.13;;
4756;SDS011;2392;52.578;13.426;2023-05-21T07:03:10;18.17;;;15.43;;
4756;SDS011;2392;52.578;13.426;2023-05-21T07:05:39;17.97;;;15.47;;
4756;SDS011;2392;52.578;13.426;2023-05-21T07:08:06;16.53;;;14.93;;
4756;SDS011;2392;52.578;13.426;2023-05-21T07:10:33;18.60;;;15.50;;
4756;SDS011;2392;52.578;13.426;2023-05-21T07:13:00;15.13;;;13.63;;
4756;SDS011;2392;52.578;13.426;2023-05-21T07:15:28;15.27;;;13.27;;
4756;SDS011;2392;52.578;13.426;2023-05-21T07:17:56;15.57;;;13.60;;
4756;SDS011;2392;52.578;13.426;2023-05-21T07:20:23;16.53;;;14.93;;
4756;SDS011;2392;52.578;13.426;2023-05-21T07:22:54;16.33;;;14.60;;
4756;SDS011;2392;52.578;13.426;2023-05-21T07:25:22;15.50;;;14.10;;
4756;SDS011;2392;52.578;13.426;2023-05-21T07:27:49;16.53;;;14.93;;
4756;SDS011;2392;52.578;13.426;2023-05-21T07:30:16;18.27;;;16.40;;
4756;SDS011;2392;52.578;13.426;2023-05-21T07:32:45;16.10;;;14.40;;
4756;SDS011;2392;52.578;13.426;2023-05-21T07:35:12;17.17;;;15.27;;
4756;SDS011;2392;52.578;13.426;2023-05-21T07:37:39;20.53;;;13.60;;
4756;SDS011;2392;52.578;13.426;2023-05-21T07:40:08;17.23;;;15.30;;
4756;SDS011;2392;52.578;13.426;2023-05-21T07:42:37;18.23;;;14.50;;
4756;SDS011;2392;52.578;13.426;2023-05-21T07:45:05;16.97;;;14.93;;
4756;SDS011;2392;52.578;13.426;2023-05-21T07:47:38;21.33;;;14.83;;
4756;SDS011;2392;52.578;13.426;2023-05-21T07:50:05;16.00;;;14.30;;
4756;SDS011;2392;52.578;13.426;2023-05-21T07:52:33;19.83;;;15.10;;
4756;SDS011;2392;52.578;13.426;2023-05-21T07:55:00;18.23;;;13.90;;
4756;SDS011;2392;52.578;13.426;2023-05-21T07:57:31;15.60;;;14.00;;
4756;SDS011;2392;52.578;13.426;2023-05-21T08:00:02;14.43;;;12.90;;
4756;SDS011;2392;52.578;13.426;2023-05-21T08:02:40;15.10;;;13.30;;
4756;SDS011;2392;52.578;13.426;2023-05-21T08:05:09;16.63;;;13.10;;
4756;SDS011;2392;52.578;13.426;2023-05-21T08:07:37;15.00;;;13.10;;
4756;SDS011;2392;52.578;13.426;2023-05-21T08:10:05;13.80;;;12.37;;
4756;SDS011;2392;52.578;13.426;2023-05-21T08:12:35;13.93;;;12.47;;
4756;SDS011;2392;52.578;13.426;2023-05-21T08:15:03;12.47;;;11.20;;
4756;SDS011;2392;52.578;13.426;2023-05-21T08:17:35;13.17;;;11.80;;
4756;SDS011;2392;52.578;13.426;2023-05-21T08:20:02;21.23;;;12.83;;
4756;SDS011;2392;52.578;13.426;2023-05-21T08:22:32;14.17;;;11.60;;
4756;SDS011;2392;52.578;13.426;2023-05-21T08:24:59;14.57;;;12.43;;
4756;SDS011;2392;52.578;13.426;2023-05-21T08:27:26;14.57;;;11.93;;
4756;SDS011;2392;52.578;13.426;2023-05-21T08:29:54;12.13;;;10.93;;
4756;SDS011;2392;52.578;13.426;2023-05-21T08:32:21;11.40;;;10.30;;
4756;SDS011;2392;52.578;13.426;2023-05-21T08:34:48;12.40;;;11.10;;
4756;SDS011;2392;52.578;13.426;2023-05-21T08:37:37;17.70;;;12.10;;
4756;SDS011;2392;52.578;13.426;2023-05-21T08:40:21;12.33;;;11.20;;
4756;SDS011;2392;52.578;13.426;2023-05-21T08:42:50;12.20;;;10.20;;
4756;SDS011;2392;52.578;13.426;2023-05-21T08:45:33;17.00;;;10.40;;
4756;SDS011;2392;52.578;13.426;2023-05-21T08:48:01;12.43;;;10.77;;
4756;SDS011;2392;52.578;13.426;2023-05-21T08:50:33;10.87;;;9.77;;
4756;SDS011;2392;52.578;13.426;2023-05-21T08:53:06;14.17;;;10.07;;
4756;SDS011;2392;52.578;13.426;2023-05-21T08:55:34;13.57;;;11.50;;
4756;SDS011;2392;52.578;13.426;2023-05-21T08:58:03;11.60;;;10.20;;
4756;SDS011;2392;52.578;13.426;2023-05-21T09:00:31;11.77;;;10.60;;
4756;SDS011;2392;52.578;13.426;2023-05-21T09:02:59;10.80;;;9.70;;
4756;SDS011;2392;52.578;13.426;2023-05-21T09:05:32;10.57;;;9.53;;
4756;SDS011;2392;52.578;13.426;2023-05-21T09:08:02;13.80;;;10.87;;
4756;SDS011;2392;52.578;13.426;2023-05-21T09:10:55;10.70;;;9.10;;
4756;SDS011;2392;52.578;13.426;2023-05-21T09:13:29;11.47;;;10.20;;
4756;SDS011;2392;52.578;13.426;2023-05-21T09:16:00;11.23;;;10.03;;
4756;SDS011;2392;52.578;13.426;2023-05-21T09:18:27;10.53;;;8.60;;
4756;SDS011;2392;52.578;13.426;2023-05-21T09:21:24;15.03;;;9.00;;
4756;SDS011;2392;52.578;13.426;2023-05-21T09:23:56;10.00;;;9.20;;
4756;SDS011;2392;52.578;13.426;2023-05-21T09:26:25;10.53;;;9.63;;
4756;SDS011;2392;52.578;13.426;2023-05-21T09:28:56;11.00;;;9.90;;
4756;SDS011;2392;52.578;13.426;2023-05-21T09:31:26;9.20;;;7.97;;
4756;SDS011;2392;52.578;13.426;2023-05-21T09:33:54;11.60;;;9.10;;
4756;SDS011;2392;52.578;13.426;2023-05-21T09:36:23;9.83;;;8.93;;
4756;SDS011;2392;52.578;13.426;2023-05-21T09:38:50;11.27;;;10.00;;
4756;SDS011;2392;52.578;13.426;2023-05-21T09:41:17;9.10;;;8.20;;
4756;SDS011;2392;52.578;13.426;2023-05-21T09:43:46;15.20;;;8.43;;
4756;SDS011;2392;52.578;13.426;2023-05-21T09:46:14;11.50;;;9.10;;
4756;SDS011;2392;52.578;13.426;2023-05-21T09:48:43;9.80;;;8.60;;
4756;SDS011;2392;52.578;13.426;2023-05-21T09:51:16;15.50;;;8.30;;
4756;SDS011;2392;52.578;13.426;2023-05-21T09:53:45;7.97;;;7.20;;
4756;SDS011;2392;52.578;13.426;2023-05-21T09:56:16;12.50;;;9.30;;
4756;SDS011;2392;52.578;13.426;2023-05-21T09:58:50;12.43;;;7.60;;
4756;SDS011;2392;52.578;13.426;2023-05-21T10:01:19;10.43;;;8.30;;
4756;SDS011;2392;52.578;13.426;2023-05-21T10:03:49;12.00;;;7.57;;
4756;SDS011;2392;52.578;13.426;2023-05-21T10:06:19;8.00;;;7.30;;
4756;SDS011;2392;52.578;13.426;2023-05-21T10:08:49;8.00;;;7.30;;
4756;SDS011;2392;52.578;13.426;2023-05-21T10:11:19;7.93;;;7.23;;
4756;SDS011;2392;52.578;13.426;2023-05-21T10:13:49;10.60;;;8.73;;
4756;SDS011;2392;52.578;13.426;2023-05-21T10:16:20;10.73;;;7.60;;
4756;SDS011;2392;52.578;13.426;2023-05-21T10:18:49;9.50;;;8.03;;
4756;SDS011;2392;52.578;13.426;2023-05-21T10:21:18;8.43;;;7.70;;
4756;SDS011;2392;52.578;13.426;2023-05-21T10:23:46;7.87;;;7.10;;
4756;SDS011;2392;52.578;13.426;2023-05-21T10:26:15;12.13;;;6.97;;
4756;SDS011;2392;52.578;13.426;2023-05-21T10:28:42;6.57;;;6.10;;
4756;SDS011;2392;52.578;13.426;2023-05-21T10:31:10;7.93;;;7.20;;
4756;SDS011;2392;52.578;13.426;2023-05-21T10:33:38;9.03;;;8.13;;
4756;SDS011;2392;52.578;13.426;2023-05-21T10:36:09;7.63;;;5.83;;
4756;SDS011;2392;52.578;13.426;2023-05-21T10:38:36;6.50;;;6.00;;
4756;SDS011;2392;52.578;13.426;2023-05-21T10:41:04;6.87;;;6.20;;
4756;SDS011;2392;52.578;13.426;2023-05-21T10:43:46;6.80;;;6.30;;
4756;SDS011;2392;52.578;13.426;2023-05-21T10:52:21;6.77;;;5.30;;
4756;SDS011;2392;52.578;13.426;2023-05-21T10:55:00;8.53;;;5.33;;
4756;SDS011;2392;52.578;13.426;2023-05-21T10:57:58;6.07;;;5.50;;
4756;SDS011;2392;52.578;13.426;2023-05-21T11:00:40;6.37;;;5.63;;
4756;SDS011;2392;52.578;13.426;2023-05-21T11:03:09;5.67;;;5.07;;
4756;SDS011;2392;52.578;13.426;2023-05-21T11:05:38;11.77;;;5.40;;
4756;SDS011;2392;52.578;13.426;2023-05-21T11:08:19;7.07;;;5.70;;
4756;SDS011;2392;52.578;13.426;2023-05-21T11:10:51;5.20;;;4.70;;
4756;SDS011;2392;52.578;13.426;2023-05-21T11:13:19;5.60;;;4.87;;
4756;SDS011;2392;52.578;13.426;2023-05-21T11:16:05;6.90;;;5.40;;
4756;SDS011;2392;52.578;13.426;2023-05-21T11:21:22;5.57;;;5.10;;
4756;SDS011;2392;52.578;13.426;2023-05-21T11:23:54;5.33;;;5.03;;
4756;SDS011;2392;52.578;13.426;2023-05-21T11:26:22;6.93;;;5.20;;
4756;SDS011;2392;52.578;13.426;2023-05-21T11:28:51;6.73;;;5.60;;
4756;SDS011;2392;52.578;13.426;2023-05-21T11:31:33;8.70;;;6.10;;
4756;SDS011;2392;52.578;13.426;2023-05-21T11:34:12;6.90;;;6.30;;
4756;SDS011;2392;52.578;13.426;2023-05-21T11:36:40;5.67;;;5.17;;
4756;SDS011;2392;52.578;13.426;2023-05-21T11:39:12;18.40;;;10.00;;
4756;SDS011;2392;52.578;13.426;2023-05-21T11:41:51;6.33;;;5.40;;
4756;SDS011;2392;52.578;13.426;2023-05-21T11:44:19;7.10;;;5.63;;
4756;SDS011;2392;52.578;13.426;2023-05-21T11:47:03;8.60;;;5.50;;
4756;SDS011;2392;52.578;13.426;2023-05-21T11:49:31;6.53;;;5.83;;
4756;SDS011;2392;52.578;13.426;2023-05-21T11:51:58;5.63;;;5.23;;
4756;SDS011;2392;52.578;13.426;2023-05-21T11:54:27;5.93;;;5.43;;
4756;SDS011;2392;52.578;13.426;2023-05-21T11:56:58;6.50;;;5.67;;
4756;SDS011;2392;52.578;13.426;2023-05-21T11:59:26;7.87;;;5.70;;
4756;SDS011;2392;52.578;13.426;2023-05-21T12:01:53;8.73;;;6.07;;
4756;SDS011;2392;52.578;13.426;2023-05-21T12:04:20;5.73;;;5.23;;
4756;SDS011;2392;52.578;13.426;2023-05-21T12:06:47;9.23;;;5.63;;
4756;SDS011;2392;52.578;13.426;2023-05-21T12:09:14;6.80;;;6.00;;
4756;SDS011;2392;52.578;13.426;2023-05-21T12:11:43;6.90;;;6.27;;
4756;SDS011;2392;52.578;13.426;2023-05-21T12:14:10;6.63;;;5.70;;
4756;SDS011;2392;52.578;13.426;2023-05-21T12:16:37;5.83;;;5.40;;
4756;SDS011;2392;52.578;13.426;2023-05-21T12:19:05;28.00;;;6.57;;
4756;SDS011;2392;52.578;13.426;2023-05-21T12:21:32;5.97;;;5.47;;
4756;SDS011;2392;52.578;13.426;2023-05-21T12:24:00;6.33;;;5.80;;
4756;SDS011;2392;52.578;13.426;2023-05-21T12:26:27;7.40;;;5.83;;
4756;SDS011;2392;52.578;13.426;2023-05-21T12:28:58;6.57;;;5.90;;
4756;SDS011;2392;52.578;13.426;2023-05-21T12:31:25;7.43;;;5.90;;
4756;SDS011;2392;52.578;13.426;2023-05-21T12:33:56;6.47;;;5.90;;
4756;SDS011;2392;52.578;13.426;2023-05-21T12:36:25;6.90;;;6.30;;
4756;SDS011;2392;52.578;13.426;2023-05-21T12:38:53;9.33;;;5.53;;
4756;SDS011;2392;52.578;13.426;2023-05-21T12:41:21;6.60;;;5.97;;
4756;SDS011;2392;52.578;13.426;2023-05-21T12:43:49;10.90;;;6.33;;
4756;SDS011;2392;52.578;13.426;2023-05-21T12:46:18;5.70;;;5.20;;
4756;SDS011;2392;52.578;13.426;2023-05-21T12:48:47;8.10;;;5.83;;
4756;SDS011;2392;52.578;13.426;2023-05-21T12:51:15;7.23;;;6.10;;
4756;SDS011;2392;52.578;13.426;2023-05-21T12:53:42;7.23;;;5.53;;
4756;SDS011;2392;52.578;13.426;2023-05-21T12:56:10;8.63;;;6.20;;
4756;SDS011;2392;52.578;13.426;2023-05-21T12:58:37;5.60;;;5.10;;
4756;SDS011;2392;52.578;13.426;2023-05-21T13:01:05;6.33;;;5.83;;
4756;SDS011;2392;52.578;13.426;2023-05-21T13:03:34;12.17;;;6.07;;
4756;SDS011;2392;52.578;13.426;2023-05-21T13:06:01;7.00;;;6.37;;
4756;SDS011;2392;52.578;13.426;2023-05-21T13:08:28;6.43;;;5.63;;
4756;SDS011;2392;52.578;13.426;2023-05-21T13:10:55;6.27;;;5.77;;
4756;SDS011;2392;52.578;13.426;2023-05-21T13:13:22;7.13;;;5.67;;
4756;SDS011;2392;52.578;13.426;2023-05-21T13:15:49;6.30;;;5.70;;
4756;SDS011;2392;52.578;13.426;2023-05-21T13:18:16;5.93;;;5.50;;
4756;SDS011;2392;52.578;13.426;2023-05-21T13:20:46;8.47;;;5.60;;
4756;SDS011;2392;52.578;13.426;2023-05-21T13:23:13;8.93;;;6.10;;
4756;SDS011;2392;52.578;13.426;2023-05-21T13:25:40;6.73;;;5.87;;
4756;SDS011;2392;52.578;13.426;2023-05-21T13:28:07;11.37;;;5.90;;
4756;SDS011;2392;52.578;13.426;2023-05-21T13:30:39;6.43;;;5.50;;
4756;SDS011;2392;52.578;13.426;2023-05-21T13:33:06;13.30;;;6.77;;
4756;SDS011;2392;52.578;13.426;2023-05-21T13:35:33;6.47;;;5.87;;
4756;SDS011;2392;52.578;13.426;2023-05-21T13:38:01;10.17;;;5.83;;
4756;SDS011;2392;52.578;13.426;2023-05-21T13:40:28;5.80;;;5.20;;
4756;SDS011;2392;52.578;13.426;2023-05-21T13:42:55;6.30;;;5.47;;
4756;SDS011;2392;52.578;13.426;2023-05-21T13:45:22;8.13;;;5.43;;
4756;SDS011;2392;52.578;13.426;2023-05-21T13:47:55;6.20;;;5.70;;
4756;SDS011;2392;52.578;13.426;2023-05-21T13:50:25;7.53;;;6.17;;
4756;SDS011;2392;52.578;13.426;2023-05-21T13:52:55;5.93;;;5.47;;
4756;SDS011;2392;52.578;13.426;2023-05-21T13:55:23;7.13;;;5.37;;
4756;SDS011;2392;52.578;13.426;2023-05-21T13:57:50;6.93;;;5.30;;
4756;SDS011;2392;52.578;13.426;2023-05-21T14:00:17;7.53;;;6.07;;
4756;SDS011;2392;52.578;13.426;2023-05-21T14:02:47;7.40;;;5.70;;
4756;SDS011;2392;52.578;13.426;2023-05-21T14:05:14;7.03;;;5.70;;
4756;SDS011;2392;52.578;13.426;2023-05-21T14:07:44;6.30;;;5.77;;
4756;SDS011;2392;52.578;13.426;2023-05-21T14:10:15;5.87;;;5.47;;
4756;SDS011;2392;52.578;13.426;2023-05-21T14:12:44;7.50;;;5.40;;
4756;SDS011;2392;52.578;13.426;2023-05-21T14:15:13;6.07;;;5.33;;
4756;SDS011;2392;52.578;13.426;2023-05-21T14:17:46;7.07;;;5.80;;
4756;SDS011;2392;52.578;13.426;2023-05-21T14:20:14;6.03;;;5.43;;
4756;SDS011;2392;52.578;13.426;2023-05-21T14:22:51;6.10;;;5.20;;
4756;SDS011;2392;52.578;13.426;2023-05-21T14:25:18;6.43;;;5.83;;
4756;SDS011;2392;52.578;13.426;2023-05-21T14:27:46;6.27;;;5.70;;
4756;SDS011;2392;52.578;13.426;2023-05-21T14:30:13;5.70;;;5.20;;
4756;SDS011;2392;52.578;13.426;2023-05-21T14:32:40;9.50;;;6.53;;
4756;SDS011;2392;52.578;13.426;2023-05-21T14:35:07;6.43;;;4.77;;
4756;SDS011;2392;52.578;13.426;2023-05-21T14:37:35;6.03;;;5.43;;
4756;SDS011;2392;52.578;13.426;2023-05-21T14:40:02;6.93;;;5.17;;
4756;SDS011;2392;52.578;13.426;2023-05-21T14:42:31;12.00;;;6.30;;
4756;SDS011;2392;52.578;13.426;2023-05-21T14:45:00;6.77;;;5.07;;
4756;SDS011;2392;52.578;13.426;2023-05-21T14:47:27;5.30;;;4.90;;
4756;SDS011;2392;52.578;13.426;2023-05-21T14:49:54;5.67;;;5.17;;
4756;SDS011;2392;52.578;13.426;2023-05-21T14:52:21;7.10;;;5.67;;
4756;SDS011;2392;52.578;13.426;2023-05-21T14:54:50;8.13;;;5.00;;
4756;SDS011;2392;52.578;13.426;2023-05-21T14:57:17;5.27;;;4.87;;
4756;SDS011;2392;52.578;13.426;2023-05-21T14:59:44;7.50;;;5.10;;
4756;SDS011;2392;52.578;13.426;2023-05-21T15:02:13;10.20;;;5.53;;
4756;SDS011;2392;52.578;13.426;2023-05-21T15:04:40;5.93;;;5.10;;